createdAt,value
2022-10-11T00:02:41.722Z,12.80
2022-10-11T00:06:44.453Z,12.90
2022-10-11T00:10:56.257Z,13.00
2022-10-11T00:15:00.311Z,13.10
2022-10-11T00:19:03.248Z,13.20
2022-10-11T00:23:05.914Z,13.20
2022-10-11T00:27:08.843Z,13.30
2022-10-11T00:31:16.663Z,13.30
2022-10-11T00:35:19.690Z,13.40
2022-10-11T00:39:22.650Z,13.40
2022-10-11T00:43:27.674Z,13.40
2022-10-11T00:47:31.709Z,13.50
2022-10-11T00:51:42.646Z,13.60
2022-10-11T00:55:51.315Z,13.60
2022-10-11T00:59:56.004Z,13.70
2022-10-11T01:04:00.161Z,13.70
2022-10-11T01:08:04.294Z,13.70
2022-10-11T01:12:14.903Z,13.70
2022-10-11T01:16:28.117Z,13.70
2022-10-11T01:20:39.071Z,13.70
2022-10-11T01:25:04.538Z,13.60
2022-10-11T01:29:14.507Z,13.60
2022-10-11T01:33:30.942Z,13.60
2022-10-11T01:37:37.097Z,13.60
2022-10-11T01:41:43.258Z,13.60
2022-10-11T01:45:48.918Z,13.50
2022-10-11T01:49:57.266Z,13.40
2022-10-11T01:54:08.222Z,13.40
2022-10-11T01:58:19.306Z,13.50
2022-10-11T02:02:34.597Z,13.50
2022-10-11T02:06:46.185Z,13.50
2022-10-11T02:10:53.537Z,13.50
2022-10-11T02:14:58.517Z,13.50
2022-10-11T02:19:04.358Z,13.50
2022-10-11T02:23:11.655Z,13.50
2022-10-11T02:27:16.083Z,13.50
2022-10-11T02:31:20.102Z,13.50
2022-10-11T02:35:27.721Z,13.40
2022-10-11T02:39:36.611Z,13.40
2022-10-11T02:43:44.191Z,13.40
2022-10-11T02:47:47.920Z,13.30
2022-10-11T02:51:50.615Z,13.30
2022-10-11T02:55:56.372Z,13.20
2022-10-11T02:59:59.109Z,13.20
2022-10-11T03:04:01.783Z,13.20
2022-10-11T03:08:04.475Z,13.20
2022-10-11T03:12:09.039Z,13.20
2022-10-11T03:16:12.304Z,13.30
2022-10-11T03:20:15.346Z,13.30
2022-10-11T03:24:18.028Z,13.30
2022-10-11T03:28:22.540Z,13.20
2022-10-11T03:32:25.431Z,13.30
2022-10-11T03:36:28.149Z,13.30
2022-10-11T03:40:30.904Z,13.30
2022-10-11T03:44:34.989Z,13.30
2022-10-11T03:48:37.688Z,13.30
2022-10-11T03:52:40.423Z,13.30
2022-10-11T03:56:43.113Z,13.30
2022-10-11T04:00:47.341Z,13.30
2022-10-11T04:04:50.065Z,13.30
2022-10-11T04:08:52.754Z,13.30
2022-10-11T04:12:55.481Z,13.40
2022-10-11T04:17:00.463Z,13.40
2022-10-11T04:21:03.531Z,13.30
2022-10-11T04:25:07.521Z,13.30
2022-10-11T04:29:10.202Z,13.20
2022-10-11T04:33:14.402Z,13.20
2022-10-11T04:37:17.475Z,13.10
2022-10-11T04:41:20.166Z,13.00
2022-10-11T04:45:22.961Z,13.10
2022-10-11T04:49:27.062Z,13.10
2022-10-11T04:53:29.920Z,13.20
2022-10-11T04:57:32.851Z,13.20
2022-10-11T05:01:35.717Z,13.20
2022-10-11T05:05:39.839Z,13.20
2022-10-11T05:09:42.567Z,13.20
2022-10-11T05:13:46.269Z,13.20
2022-10-11T05:17:48.995Z,13.20
2022-10-11T05:21:53.090Z,13.20
2022-10-11T05:25:55.787Z,13.20
2022-10-11T05:29:58.546Z,13.20
2022-10-11T05:34:01.298Z,13.20
2022-10-11T05:38:05.338Z,13.20
2022-10-11T05:42:09.998Z,13.20
2022-10-11T05:46:13.165Z,13.20
2022-10-11T05:50:17.924Z,13.30
2022-10-11T05:54:24.826Z,13.30
2022-10-11T05:58:27.709Z,13.30
2022-10-11T06:02:30.454Z,13.30
2022-10-11T06:06:33.216Z,13.40
2022-10-11T06:10:38.203Z,13.40
2022-10-11T06:14:40.874Z,13.40
2022-10-11T06:18:43.589Z,13.50
2022-10-11T06:22:46.253Z,13.50
2022-10-11T06:26:50.947Z,13.50
2022-10-11T06:30:53.670Z,13.60
2022-10-11T06:34:56.401Z,13.60
2022-10-11T06:39:00.949Z,13.60
2022-10-11T06:43:05.060Z,13.60
2022-10-11T06:47:08.264Z,13.60
2022-10-11T06:51:11.327Z,13.70
2022-10-11T06:55:14.121Z,13.60
2022-10-11T06:59:18.264Z,13.70
2022-10-11T07:03:20.966Z,13.80
2022-10-11T07:07:23.687Z,13.80
2022-10-11T07:11:28.542Z,14.00
2022-10-11T07:15:34.594Z,14.10
2022-10-11T07:19:37.311Z,14.20
2022-10-11T07:23:40.286Z,14.30
2022-10-11T07:27:42.997Z,14.20
2022-10-11T07:31:47.196Z,14.20
2022-10-11T07:35:50.730Z,14.30
2022-10-11T07:39:53.432Z,14.50
2022-10-11T07:43:56.218Z,14.50
2022-10-11T07:48:00.228Z,14.70
2022-10-11T07:52:02.985Z,14.80
2022-10-11T07:56:06.628Z,14.90
2022-10-11T08:00:10.777Z,15.00
2022-10-11T08:04:17.399Z,15.10
2022-10-11T08:08:20.296Z,15.30
2022-10-11T08:12:23.251Z,15.40
2022-10-11T08:16:26.185Z,15.40
2022-10-11T08:20:31.122Z,15.50
2022-10-11T08:24:39.406Z,15.50
2022-10-11T08:28:42.183Z,15.50
2022-10-11T08:32:45.073Z,15.60
2022-10-11T08:36:49.453Z,15.70
2022-10-11T08:40:55.147Z,16.00
2022-10-11T08:45:17.212Z,16.40
2022-10-11T08:49:24.152Z,17.10
2022-10-11T08:53:38.822Z,17.70
2022-10-11T08:57:42.290Z,17.60
2022-10-11T09:01:50.696Z,17.20
2022-10-11T09:06:02.832Z,16.90
2022-10-11T09:10:27.504Z,16.80
2022-10-11T09:14:47.623Z,16.70
2022-10-11T09:19:08.550Z,16.70
2022-10-11T09:23:24.451Z,16.70
2022-10-11T09:27:57.658Z,16.70
2022-10-11T09:31:57.981Z,16.70
2022-10-11T09:36:01.089Z,16.90
2022-10-11T09:40:17.964Z,17.00
2022-10-11T09:44:24.615Z,17.10
2022-10-11T09:48:31.568Z,17.00
2022-10-11T09:52:34.654Z,17.00
2022-10-11T09:56:43.750Z,17.00
2022-10-11T10:00:58.511Z,16.80
2022-10-11T10:05:15.265Z,16.80
2022-10-11T10:09:22.219Z,16.80
2022-10-11T10:13:28.332Z,16.80
2022-10-11T10:17:33.114Z,16.90
2022-10-11T10:21:37.915Z,16.70
2022-10-11T10:25:43.545Z,16.80
2022-10-11T10:30:02.699Z,16.80
2022-10-11T10:34:14.985Z,16.90
2022-10-11T10:38:26.783Z,17.00
2022-10-11T10:42:29.877Z,17.10
2022-10-11T10:46:49.987Z,17.10
2022-10-11T10:50:59.714Z,17.20
2022-10-11T10:55:08.613Z,17.20
2022-10-11T10:59:38.843Z,17.30
2022-10-11T11:03:47.361Z,17.40
2022-10-11T11:07:56.691Z,17.60
2022-10-11T11:12:07.042Z,17.80
2022-10-11T11:16:16.627Z,18.00
2022-10-11T11:20:29.522Z,18.40
2022-10-11T11:24:41.011Z,19.60
2022-10-11T11:28:55.010Z,22.70
2022-10-11T11:33:07.802Z,23.00
2022-10-11T11:37:20.739Z,22.30
2022-10-11T11:41:28.678Z,21.70
2022-10-11T11:45:46.099Z,21.30
2022-10-11T11:49:54.635Z,20.90
2022-10-11T11:54:06.015Z,21.30
2022-10-11T11:58:25.835Z,22.20
2022-10-11T12:02:42.323Z,21.60
2022-10-11T12:07:11.255Z,21.00
2022-10-11T12:11:08.146Z,20.60
2022-10-11T12:15:23.301Z,20.30
2022-10-11T12:19:28.255Z,20.00
2022-10-11T12:23:44.510Z,19.80
2022-10-11T12:27:49.322Z,19.60
2022-10-11T12:32:32.820Z,19.20
2022-10-11T12:36:39.415Z,19.30
2022-10-11T12:40:46.938Z,19.80
2022-10-11T12:45:25.451Z,20.30
2022-10-11T12:49:41.823Z,20.80
2022-10-11T12:54:25.035Z,20.70
2022-10-11T12:58:30.143Z,20.50
2022-10-11T13:02:42.501Z,20.30
2022-10-11T13:06:49.135Z,20.10
2022-10-11T13:10:52.475Z,19.80
2022-10-11T13:15:03.786Z,19.60
2022-10-11T13:19:06.734Z,19.50
2022-10-11T13:23:21.589Z,19.20
2022-10-11T13:27:27.756Z,19.00
2022-10-11T13:31:30.582Z,19.00
2022-10-11T13:35:35.631Z,19.00
2022-10-11T13:39:40.171Z,19.00
2022-10-11T13:43:43.015Z,19.00
2022-10-11T13:47:47.101Z,18.90
2022-10-11T13:51:59.108Z,18.70
2022-10-11T13:56:05.026Z,18.60
2022-10-11T14:00:27.934Z,18.80
2022-10-11T14:04:41.439Z,19.20
2022-10-11T14:08:47.151Z,19.00
2022-10-11T14:13:08.057Z,18.80
2022-10-11T14:17:16.713Z,19.00
2022-10-11T14:21:26.707Z,19.20
2022-10-11T14:25:29.554Z,19.40
2022-10-11T14:29:35.583Z,19.40
2022-10-11T14:33:38.759Z,19.60
2022-10-11T14:37:41.442Z,19.40
2022-10-11T14:41:44.228Z,19.40
2022-10-11T14:45:48.286Z,19.30
2022-10-11T14:49:50.974Z,19.10
2022-10-11T14:53:53.711Z,18.80
2022-10-11T14:57:56.562Z,18.80
2022-10-11T15:02:00.919Z,18.70
2022-10-11T15:06:03.866Z,18.50
2022-10-11T15:10:17.833Z,18.40
2022-10-11T15:14:20.613Z,18.20
2022-10-11T15:18:24.660Z,18.00
2022-10-11T15:22:27.586Z,17.80
2022-10-11T15:26:30.877Z,17.70
2022-10-11T15:30:41.026Z,17.60
2022-10-11T15:34:45.732Z,17.50
2022-10-11T15:38:49.027Z,17.40
2022-10-11T15:42:52.623Z,17.40
2022-10-11T15:46:55.348Z,17.30
2022-10-11T15:50:59.977Z,17.20
2022-10-11T15:55:02.658Z,17.10
2022-10-11T15:59:05.350Z,17.00
2022-10-11T16:03:08.034Z,17.00
2022-10-11T16:07:12.093Z,16.90
2022-10-11T16:11:15.096Z,16.80
2022-10-11T16:15:18.366Z,16.80
2022-10-11T16:19:21.026Z,16.70
2022-10-11T16:23:25.111Z,16.60
2022-10-11T16:27:27.964Z,16.60
2022-10-11T16:31:30.713Z,16.50
2022-10-11T16:35:33.505Z,16.50
2022-10-11T16:39:38.018Z,16.40
2022-10-11T16:43:40.947Z,16.40
2022-10-11T16:47:44.810Z,16.30
2022-10-11T16:51:47.504Z,16.30
2022-10-11T16:55:51.550Z,16.30
2022-10-11T16:59:54.678Z,16.30
2022-10-11T17:03:58.139Z,16.20
2022-10-11T17:08:01.167Z,16.20
2022-10-11T17:12:05.807Z,16.20
2022-10-11T17:16:09.302Z,16.10
2022-10-11T17:20:12.460Z,16.10
2022-10-11T17:24:15.251Z,16.10
2022-10-11T17:28:19.307Z,16.00
2022-10-11T17:32:22.024Z,16.00
2022-10-11T17:36:27.721Z,15.90
2022-10-11T17:40:30.486Z,15.80
2022-10-11T17:44:35.527Z,15.80
2022-10-11T17:48:39.283Z,15.70
2022-10-11T17:52:42.439Z,15.70
2022-10-11T17:56:45.143Z,15.60
2022-10-11T18:00:49.272Z,15.60
2022-10-11T18:04:52.009Z,15.50
2022-10-11T18:08:54.690Z,15.50
2022-10-11T18:12:57.432Z,15.50
2022-10-11T18:17:01.484Z,15.50
2022-10-11T18:21:04.391Z,15.40
2022-10-11T18:25:07.612Z,15.40
2022-10-11T18:29:10.823Z,15.40
2022-10-11T18:33:16.524Z,15.40
2022-10-11T18:37:19.220Z,15.40
2022-10-11T18:41:23.798Z,15.30
2022-10-11T18:45:26.544Z,15.30
2022-10-11T18:49:30.979Z,15.30
2022-10-11T18:53:34.392Z,15.30
2022-10-11T18:57:37.134Z,15.20
2022-10-11T19:01:42.353Z,15.20
2022-10-11T19:05:46.502Z,15.20
2022-10-11T19:09:49.268Z,15.20
2022-10-11T19:13:56.492Z,15.20
2022-10-11T19:17:59.206Z,15.20
2022-10-11T19:22:03.562Z,15.20
2022-10-11T19:26:07.627Z,15.20
2022-10-11T19:30:11.643Z,15.20
2022-10-11T19:34:14.634Z,15.20
2022-10-11T19:42:27.378Z,15.20
2022-10-11T19:50:52.986Z,15.20
2022-10-11T19:54:57.038Z,15.20
2022-10-11T19:59:00.212Z,15.20
2022-10-11T20:03:02.971Z,15.20
2022-10-11T20:07:05.711Z,15.20
2022-10-11T20:11:11.412Z,15.10
2022-10-11T20:15:14.189Z,15.20
2022-10-11T20:19:17.457Z,15.20
2022-10-11T20:23:23.742Z,15.10
2022-10-11T20:27:33.410Z,15.10
2022-10-11T20:31:38.763Z,15.10
2022-10-11T20:35:42.400Z,15.10
2022-10-11T20:39:45.119Z,15.00
2022-10-11T20:43:50.991Z,15.00
2022-10-11T20:47:54.058Z,15.00
2022-10-11T20:51:57.034Z,14.90
2022-10-11T20:55:59.708Z,14.90
2022-10-11T21:00:03.822Z,14.80
2022-10-11T21:04:07.790Z,14.90
2022-10-11T21:08:10.739Z,14.80
2022-10-11T21:12:13.445Z,14.80
2022-10-11T21:16:18.044Z,14.80
2022-10-11T21:20:20.906Z,14.90
2022-10-11T21:24:23.574Z,14.90
2022-10-11T21:28:26.361Z,14.90
2022-10-11T21:32:30.461Z,14.90
2022-10-11T21:36:33.171Z,14.90
2022-10-11T21:40:39.627Z,14.90
2022-10-11T21:44:43.421Z,14.90
2022-10-11T21:48:47.536Z,14.90
2022-10-11T21:52:50.207Z,14.90
2022-10-11T21:56:52.936Z,14.90
2022-10-11T22:00:55.690Z,14.90
2022-10-11T22:04:59.755Z,14.90
2022-10-11T22:09:03.641Z,14.90
2022-10-11T22:13:06.853Z,14.90
2022-10-11T22:17:09.564Z,14.80
2022-10-11T22:21:15.438Z,14.80
2022-10-11T22:25:18.265Z,14.80
2022-10-11T22:29:21.036Z,14.70
2022-10-11T22:33:23.775Z,14.60
2022-10-11T22:37:27.805Z,14.60
2022-10-11T22:41:30.551Z,14.60
2022-10-11T22:45:33.236Z,14.50
2022-10-11T22:49:35.956Z,14.40
2022-10-11T22:53:40.058Z,14.40
2022-10-11T22:57:42.783Z,14.30
2022-10-11T23:01:45.545Z,14.30
2022-10-11T23:05:55.366Z,14.20
2022-10-11T23:09:59.426Z,14.20
2022-10-11T23:14:02.098Z,14.10
2022-10-11T23:18:04.993Z,14.20
2022-10-11T23:22:07.670Z,14.20
2022-10-11T23:26:13.754Z,14.20
2022-10-11T23:30:16.574Z,14.20
2022-10-11T23:34:19.318Z,14.30
2022-10-11T23:38:22.039Z,14.30
2022-10-11T23:42:26.084Z,14.30
2022-10-11T23:46:28.985Z,14.30
2022-10-11T23:50:31.695Z,14.20
2022-10-11T23:54:34.419Z,14.20
2022-10-11T23:58:38.697Z,14.20
